M I D A S
Marine Information and Data Acquisition System
Tripno 1466 of the Zeeleeuw from 2008-04-25 06:40:08 to 2008-04-25 13:13:30
Back to CruiseResearch ActivitiesStationsMapUnderway DataData graphs

EquipmentUnitsComment
TimeDGPSUTC
LatitudeDGPSDM.mWGS84
LongitudeDGPSDM.mWGS84
HeadingGyrodeg 
SOGDGPSknotsSpeed over ground
COGDGPSdegCourse over ground
DepthEcho soundermeters200 kHz
Missing or incorrect values are displayed as -999
Navigation data collected by the RV Zeeleeuw from 2008-04-25 06:36:28 to 2008-04-25 13:23:19
                                                                                    Next 1000 lines
Time Latitude Longitude Heading SOG COG Depth
2008-04-25 06:36:39 51°13.664 2°55.95 108.9 1.1 287 6.8
2008-04-25 06:36:43 51°13.664 2°55.947 108.8 1.6 291 6.7
2008-04-25 06:36:47 51°13.665 2°55.944 108.6 1.9 290 6.8
2008-04-25 06:36:53 51°13.667 2°55.938 108.6 2.3 291 7.1
2008-04-25 06:36:58 51°13.668 2°55.932 108.9 2.6 292 -999
2008-04-25 06:37:03 51°13.669 2°55.926 109.5 2.9 292 -999
2008-04-25 06:37:09 51°13.671 2°55.919 109.7 3.1 292 -999
2008-04-25 06:37:13 51°13.673 2°55.913 109.8 3.3 292 -999
2008-04-25 06:37:18 51°13.674 2°55.906 109.8 3.5 291 -999
2008-04-25 06:37:23 51°13.676 2°55.899 109.2 3.6 291 -999
2008-04-25 06:37:29 51°13.678 2°55.889 108.1 3.7 289 -999
2008-04-25 06:37:33 51°13.68 2°55.883 107.1 3.8 289 -999
2008-04-25 06:37:38 51°13.681 2°55.875 105.9 3.9 287 -999
2008-04-25 06:37:43 51°13.683 2°55.866 104.7 4 286 -999
2008-04-25 06:37:48 51°13.684 2°55.858 103.6 4.1 285 -999
2008-04-25 06:37:53 51°13.686 2°55.849 102.3 4 285 -999
2008-04-25 06:37:58 51°13.687 2°55.841 101.1 3.9 284 -999
2008-04-25 06:38:03 51°13.689 2°55.833 100 3.8 284 -999
2008-04-25 06:38:08 51°13.689 2°55.825 98.6 3.7 282 -999
2008-04-25 06:38:14 51°13.691 2°55.815 97.3 3.6 281 -999
2008-04-25 06:38:19 51°13.692 2°55.808 96.1 3.5 280 -999
2008-04-25 06:38:23 51°13.692 2°55.802 94.8 3.4 280 -999
2008-04-25 06:38:28 51°13.693 2°55.795 93.5 3.3 278 -999
2008-04-25 06:38:33 51°13.693 2°55.788 92.2 3.2 277 -999
2008-04-25 06:38:38 51°13.694 2°55.781 90.7 3.1 277 -999
2008-04-25 06:38:43 51°13.694 2°55.774 89.5 3 276 -999
2008-04-25 06:38:49 51°13.695 2°55.767 88.5 2.9 275 -999
2008-04-25 06:38:53 51°13.695 2°55.762 87.5 2.7 274 -999
2008-04-25 06:38:58 51°13.695 2°55.757 86.4 2.5 273 -999
2008-04-25 06:39:04 51°13.695 2°55.751 84.8 2.3 273 -999
2008-04-25 06:39:07 51°13.695 2°55.748 83.3 2.1 271 13.3
2008-04-25 06:39:13 51°13.695 2°55.743 81.6 1.9 271 13.2
2008-04-25 06:39:19 51°13.695 2°55.738 80 1.8 269 12.7
2008-04-25 06:39:23 51°13.695 2°55.736 78.1 1.6 268 12.8
2008-04-25 06:39:28 51°13.695 2°55.732 76.3 1.4 267 12.9
2008-04-25 06:39:32 51°13.695 2°55.73 74.5 1.3 265 13.2
2008-04-25 06:39:39 51°13.695 2°55.727 72.5 1.2 265 13
2008-04-25 06:39:43 51°13.694 2°55.725 70.6 1 265 12.9
2008-04-25 06:39:48 51°13.694 2°55.723 68.9 0.8 266 13.2
2008-04-25 06:39:52 51°13.694 2°55.722 66.4 0.7 267 13.1
2008-04-25 06:39:58 51°13.694 2°55.721 64.5 0.5 275 13.1
2008-04-25 06:40:03 51°13.695 2°55.72 62 0.3 288 13.1
2008-04-25 06:40:08 51°13.695 2°55.719 59.4 0.3 308 13.3
2008-04-25 06:40:13 51°13.695 2°55.719 55.9 0.3 339 -999
2008-04-25 06:40:17 51°13.695 2°55.719 52.9 0.4 6 13.7
2008-04-25 06:40:23 51°13.696 2°55.719 49.5 0.6 18 14
2008-04-25 06:40:29 51°13.698 2°55.72 45.6 0.7 21 -999
2008-04-25 06:40:33 51°13.698 2°55.721 40.3 0.9 21 14.7
2008-04-25 06:40:39 51°13.7 2°55.722 35.6 1.1 20 15.2
2008-04-25 06:40:43 51°13.702 2°55.722 30.8 1.3 15 -999
2008-04-25 06:40:48 51°13.704 2°55.723 24.5 1.6 14 14.6
2008-04-25 06:40:53 51°13.707 2°55.724 18.6 1.8 9 -999
2008-04-25 06:40:58 51°13.71 2°55.724 14.7 2.2 2 12.7
2008-04-25 06:41:03 51°13.713 2°55.723 7.9 2.4 356 12.4
2008-04-25 06:41:07 51°13.716 2°55.723 2.4 2.7 352 -999
2008-04-25 06:41:14 51°13.722 2°55.72 352.9 3.2 346 12.1
2008-04-25 06:41:18 51°13.726 2°55.718 348 3.7 342 11.7
2008-04-25 06:41:23 51°13.732 2°55.715 343.9 4.2 339 11.2
2008-04-25 06:41:27 51°13.737 2°55.712 340.6 4.7 338 11.1
2008-04-25 06:41:33 51°13.744 2°55.706 339.5 5.2 337 10.8
2008-04-25 06:41:38 51°13.751 2°55.701 338.1 5.6 335 10.6
2008-04-25 06:41:43 51°13.759 2°55.696 336.4 5.8 335 -999
2008-04-25 06:41:48 51°13.766 2°55.69 335.8 6.2 335 10.5
2008-04-25 06:41:53 51°13.774 2°55.684 335.6 6.4 335 -999
2008-04-25 06:41:59 51°13.784 2°55.676 335.4 6.6 334 -999
2008-04-25 06:42:03 51°13.791 2°55.671 335.2 6.7 334 -999
2008-04-25 06:42:08 51°13.799 2°55.665 335.2 6.7 335 -999
2008-04-25 06:42:13 51°13.808 2°55.658 335.4 6.7 335 10.2
2008-04-25 06:42:18 51°13.816 2°55.652 335.9 6.7 335 10
2008-04-25 06:42:23 51°13.825 2°55.646 336 6.8 335 10.1
2008-04-25 06:42:27 51°13.832 2°55.641 336 6.8 335 10.2
2008-04-25 06:42:32 51°13.84 2°55.635 336 6.8 335 -999
2008-04-25 06:42:38 51°13.851 2°55.627 336 6.8 336 -999
2008-04-25 06:42:43 51°13.86 2°55.621 336.4 6.9 335 10.4
2008-04-25 06:42:48 51°13.868 2°55.614 336.6 6.9 336 10.7
2008-04-25 06:42:52 51°13.875 2°55.609 336.6 6.9 335 11
2008-04-25 06:42:58 51°13.886 2°55.602 336 6.9 336 -999
2008-04-25 06:43:03 51°13.894 2°55.595 335.8 6.8 336 -999
2008-04-25 06:43:08 51°13.902 2°55.59 336.2 6.7 337 -999
2008-04-25 06:43:13 51°13.911 2°55.584 337 6.6 336 -999
2008-04-25 06:43:18 51°13.919 2°55.578 337.1 6.5 336 -999
2008-04-25 06:43:23 51°13.927 2°55.572 336.7 6.5 335 -999
2008-04-25 06:43:28 51°13.935 2°55.566 336 6.5 335 -999
2008-04-25 06:43:33 51°13.944 2°55.56 335.5 6.5 334 -999
2008-04-25 06:43:38 51°13.952 2°55.553 335.3 6.5 335 -999
2008-04-25 06:43:43 51°13.96 2°55.548 335.8 6.5 335 -999
2008-04-25 06:43:47 51°13.966 2°55.543 336.5 6.5 336 -999
2008-04-25 06:43:53 51°13.976 2°55.536 337 6.5 336 -999
2008-04-25 06:43:58 51°13.984 2°55.53 337.3 6.5 336 -999
2008-04-25 06:44:04 51°13.994 2°55.523 337.4 6.5 337 -999
2008-04-25 06:44:08 51°14.001 2°55.519 337.6 6.5 337 -999
2008-04-25 06:44:14 51°14.011 2°55.512 338.1 6.5 337 -999
2008-04-25 06:44:18 51°14.018 2°55.507 338.4 6.5 337 -999
2008-04-25 06:44:23 51°14.026 2°55.502 338.4 6.5 337 -999
2008-04-25 06:44:29 51°14.036 2°55.495 338.3 6.5 337 -999
2008-04-25 06:44:33 51°14.042 2°55.491 338.3 6.5 337 -999
2008-04-25 06:44:38 51°14.051 2°55.485 338.1 6.5 337 -999
2008-04-25 06:44:43 51°14.059 2°55.479 337.8 6.5 337 10.9
2008-04-25 06:44:48 51°14.067 2°55.473 337.5 6.5 336 -999
2008-04-25 06:44:53 51°14.075 2°55.467 337.3 6.5 336 -999
2008-04-25 06:44:58 51°14.083 2°55.462 337 6.5 336 -999
2008-04-25 06:45:03 51°14.092 2°55.456 336.4 6.6 335 -999
2008-04-25 06:45:08 51°14.1 2°55.449 336 6.8 335 -999
2008-04-25 06:45:13 51°14.109 2°55.442 335.8 7.2 334 -999
2008-04-25 06:45:18 51°14.118 2°55.435 335.4 7.4 334 -999
2008-04-25 06:45:23 51°14.128 2°55.428 335.2 7.7 334 -999
2008-04-25 06:45:28 51°14.138 2°55.42 334.5 7.9 333 -999
2008-04-25 06:45:33 51°14.148 2°55.412 333.9 8.2 333 -999
2008-04-25 06:45:38 51°14.158 2°55.403 333 8.3 332 -999
2008-04-25 06:45:43 51°14.169 2°55.394 333 8.4 333 -999
2008-04-25 06:45:48 51°14.179 2°55.385 332.1 8.6 330 -999
2008-04-25 06:45:54 51°14.191 2°55.373 330.1 8.7 329 -999
2008-04-25 06:45:58 51°14.199 2°55.365 328.4 8.6 327 -999
2008-04-25 06:46:03 51°14.209 2°55.354 327.4 8.2 327 -999
2008-04-25 06:46:09 51°14.22 2°55.342 326.1 8 325 -999
2008-04-25 06:46:13 51°14.226 2°55.334 324.8 7.8 324 -999
2008-04-25 06:46:18 51°14.235 2°55.324 323.5 7.5 321 11
2008-04-25 06:46:23 51°14.242 2°55.313 321.4 7.3 319 10.8
2008-04-25 06:46:27 51°14.248 2°55.305 319.6 7 317 11
2008-04-25 06:46:32 51°14.255 2°55.293 316.9 6.9 314 11
2008-04-25 06:46:38 51°14.262 2°55.28 314.2 6.8 313 11.1
2008-04-25 06:46:42 51°14.267 2°55.271 312.1 6.7 311 10.9
2008-04-25 06:46:47 51°14.273 2°55.26 310.4 6.7 310 11.1
2008-04-25 06:46:52 51°14.279 2°55.249 308.9 6.6 310 11.4
2008-04-25 06:46:57 51°14.285 2°55.237 307.8 6.5 308 -999
2008-04-25 06:47:02 51°14.29 2°55.226 307.1 6.5 309 11.4
2008-04-25 06:47:07 51°14.296 2°55.215 306.9 6.5 309 11.3
2008-04-25 06:47:13 51°14.303 2°55.202 306.9 6.5 309 11.1
2008-04-25 06:47:17 51°14.307 2°55.193 306.9 6.4 308 11.7
2008-04-25 06:47:22 51°14.313 2°55.182 307.1 6.4 308 11.9
2008-04-25 06:47:28 51°14.319 2°55.168 307 6.3 307 -999
2008-04-25 06:47:33 51°14.324 2°55.157 306.7 6.3 307 11.8
2008-04-25 06:47:38 51°14.329 2°55.146 306.2 6.3 307 -999
2008-04-25 06:47:43 51°14.335 2°55.135 306.2 6.3 307 11.6
2008-04-25 06:47:48 51°14.34 2°55.124 306.3 6.2 308 11.5
2008-04-25 06:47:53 51°14.345 2°55.113 306.5 6.2 308 11.4
2008-04-25 06:47:58 51°14.351 2°55.102 306.9 6.2 308 -999
2008-04-25 06:48:03 51°14.356 2°55.092 307.2 6.2 308 -999
2008-04-25 06:48:07 51°14.36 2°55.083 307.3 6.2 307 10.9
2008-04-25 06:48:12 51°14.365 2°55.072 307.2 6.3 307 11.2
2008-04-25 06:48:17 51°14.371 2°55.061 307.2 6.5 307 11
2008-04-25 06:48:22 51°14.377 2°55.049 307 6.8 306 11
2008-04-25 06:48:27 51°14.382 2°55.036 306.6 7 306 10.7
2008-04-25 06:48:32 51°14.388 2°55.023 306.2 7.3 306 10.7
2008-04-25 06:48:37 51°14.394 2°55.009 305.7 7.8 305 10.6
2008-04-25 06:48:42 51°14.401 2°54.995 306.2 8 307 10.7
2008-04-25 06:48:47 51°14.408 2°54.98 308.2 8.4 308 10.7
2008-04-25 06:48:51 51°14.414 2°54.969 309.7 8.5 309 10.8
2008-04-25 06:48:57 51°14.424 2°54.951 311 8.8 311 10.9
2008-04-25 06:49:02 51°14.432 2°54.936 312.7 9 314 10.9
2008-04-25 06:49:07 51°14.442 2°54.923 315.7 9.1 317 10.9
2008-04-25 06:49:11 51°14.449 2°54.912 319.4 9.2 320 10.9
2008-04-25 06:49:16 51°14.46 2°54.9 323.1 9.3 321 10.9
2008-04-25 06:49:21 51°14.47 2°54.887 325.1 9.4 323 10.8
2008-04-25 06:49:26 51°14.481 2°54.874 325.9 9.6 324 10.7
2008-04-25 06:49:31 51°14.492 2°54.863 327.5 9.7 328 10.4
2008-04-25 06:49:36 51°14.504 2°54.852 330.8 9.9 328 10.4
2008-04-25 06:49:40 51°14.513 2°54.842 332.2 10 328 10.5
2008-04-25 06:49:46 51°14.527 2°54.828 332.6 10.2 328 10.2
2008-04-25 06:49:51 51°14.54 2°54.816 332.3 10.4 328 10.2
2008-04-25 06:49:55 51°14.55 2°54.806 332 10.6 328 10.2
2008-04-25 06:50:01 51°14.565 2°54.791 332 10.8 328 10
2008-04-25 06:50:06 51°14.578 2°54.779 332.4 11 329 9.9
2008-04-25 06:50:10 51°14.589 2°54.768 333.3 11.2 329 10
2008-04-25 06:50:15 51°14.602 2°54.756 333.8 11.3 330 9.9
2008-04-25 06:50:20 51°14.616 2°54.744 334.5 11.4 331 9.9
2008-04-25 06:50:25 51°14.63 2°54.732 335.4 11.5 332 10.1
2008-04-25 06:50:30 51°14.645 2°54.72 336.7 11.6 332 9.8
2008-04-25 06:50:35 51°14.659 2°54.708 337.6 11.7 333 9.9
2008-04-25 06:50:39 51°14.671 2°54.698 336.7 11.8 330 9.8
2008-04-25 06:50:45 51°14.688 2°54.683 334.8 11.9 331 9.9
2008-04-25 06:50:49 51°14.7 2°54.672 335.2 12.1 332 9.8
2008-04-25 06:50:55 51°14.717 2°54.658 336.5 12.1 333 9.9
2008-04-25 06:50:59 51°14.729 2°54.648 337.3 12.1 333 9.8
2008-04-25 06:51:05 51°14.747 2°54.633 337 12.2 332 9.8
2008-04-25 06:51:10 51°14.762 2°54.618 335.2 12.3 329 9.9
2008-04-25 06:51:15 51°14.776 2°54.605 334 12.3 330 9.7
2008-04-25 06:51:20 51°14.791 2°54.59 332.8 12.4 327 9.8
2008-04-25 06:51:25 51°14.805 2°54.576 331.5 12.3 328 9.7
2008-04-25 06:51:30 51°14.82 2°54.561 330.9 12.4 327 9.7
2008-04-25 06:51:35 51°14.835 2°54.546 330.7 12.4 327 9.7
2008-04-25 06:51:40 51°14.849 2°54.531 330.4 12.4 327 9.8
2008-04-25 06:51:45 51°14.863 2°54.516 330.3 12.4 326 9.8
2008-04-25 06:51:50 51°14.877 2°54.5 329.8 12.4 326 9.5
2008-04-25 06:51:55 51°14.892 2°54.485 329.2 12.4 325 9.6
2008-04-25 06:52:00 51°14.905 2°54.468 328.4 12.4 324 9.7
2008-04-25 06:52:05 51°14.919 2°54.453 328 12.3 325 9.1
2008-04-25 06:52:10 51°14.934 2°54.437 328.7 12.3 325 9.1
2008-04-25 06:52:15 51°14.947 2°54.421 328 12.3 324 9.2
2008-04-25 06:52:20 51°14.961 2°54.406 328 12.2 326 9
2008-04-25 06:52:25 51°14.975 2°54.391 328.4 12.2 326 8.8
2008-04-25 06:52:30 51°14.99 2°54.376 329 12.2 326 8.7
2008-04-25 06:52:35 51°15.004 2°54.361 330.2 12.2 328 8.7
2008-04-25 06:52:40 51°15.018 2°54.346 330.5 12.2 327 8.7
2008-04-25 06:52:45 51°15.032 2°54.332 330.3 12.2 327 8.5
2008-04-25 06:52:50 51°15.046 2°54.316 329.4 12.2 325 8.7
2008-04-25 06:52:55 51°15.06 2°54.3 328.5 12.2 323 8.5
2008-04-25 06:53:00 51°15.073 2°54.283 326.9 12.3 323 8.5
2008-04-25 06:53:05 51°15.087 2°54.267 326 12.3 323 8.8
2008-04-25 06:53:09 51°15.098 2°54.255 327.3 12.2 326 8.8
2008-04-25 06:53:15 51°15.116 2°54.238 329.9 12.1 329 8.9
2008-04-25 06:53:20 51°15.131 2°54.227 333.8 12.1 334 9
2008-04-25 06:53:25 51°15.146 2°54.217 338.2 12 338 9
2008-04-25 06:53:30 51°15.162 2°54.209 343 11.9 343 9
2008-04-25 06:53:35 51°15.178 2°54.204 347.7 11.9 349 8.9
2008-04-25 06:53:40 51°15.195 2°54.201 352.2 11.8 351 9.1
2008-04-25 06:53:45 51°15.211 2°54.198 355.5 11.8 353 9.1
2008-04-25 06:53:50 51°15.227 2°54.195 357.6 11.7 353 9.1
2008-04-25 06:53:55 51°15.243 2°54.189 356.2 11.8 347 9.2
2008-04-25 06:54:00 51°15.259 2°54.182 351.7 11.7 344 9.3
2008-04-25 06:54:05 51°15.275 2°54.174 348 11.8 342 9.4
2008-04-25 06:54:10 51°15.291 2°54.166 346.1 11.9 342 9.5
2008-04-25 06:54:15 51°15.306 2°54.157 344.9 11.8 340 9.4
2008-04-25 06:54:20 51°15.321 2°54.149 344.4 11.9 341 9.6
2008-04-25 06:54:25 51°15.336 2°54.139 344.4 11.9 339 9.6
2008-04-25 06:54:30 51°15.352 2°54.129 344.4 11.9 341 9.7
2008-04-25 06:54:35 51°15.367 2°54.119 343.9 12 339 9.6
2008-04-25 06:54:40 51°15.382 2°54.11 344.1 12 340 9.8
2008-04-25 06:54:45 51°15.398 2°54.101 344.8 12 341 9.7
2008-04-25 06:54:50 51°15.413 2°54.092 345 12 340 9.8
2008-04-25 06:54:55 51°15.429 2°54.082 344.4 12 339 9.8
2008-04-25 06:55:00 51°15.444 2°54.072 343.4 12 339 9.8
2008-04-25 06:55:05 51°15.459 2°54.063 343.1 12 339 10
2008-04-25 06:55:10 51°15.475 2°54.053 343.7 12 339 10
2008-04-25 06:55:15 51°15.49 2°54.042 342.5 12 337 10.1
2008-04-25 06:55:20 51°15.505 2°54.032 342.1 12 338 10.1
2008-04-25 06:55:25 51°15.521 2°54.021 341.8 12.1 337 10.3
2008-04-25 06:55:30 51°15.536 2°54.011 342 12 337 10.1
2008-04-25 06:55:35 51°15.551 2°54 341.9 11.9 336 10.2
2008-04-25 06:55:40 51°15.566 2°53.988 340.3 12 333 10.4
2008-04-25 06:55:45 51°15.58 2°53.976 338.4 12 332 10.3
2008-04-25 06:55:50 51°15.595 2°53.963 336.5 12 332 10.6
2008-04-25 06:55:55 51°15.61 2°53.95 335.9 12.1 331 10.7
2008-04-25 06:56:00 51°15.624 2°53.937 335.4 12 330 10.6
2008-04-25 06:56:05 51°15.639 2°53.924 335 12 331 10.9
2008-04-25 06:56:10 51°15.653 2°53.911 335.1 12.1 330 10.6
2008-04-25 06:56:15 51°15.667 2°53.897 334.1 12 329 10.5
2008-04-25 06:56:20 51°15.682 2°53.883 333.9 12.1 329 10.6
2008-04-25 06:56:25 51°15.696 2°53.87 333.8 12.1 329 10.6
2008-04-25 06:56:30 51°15.71 2°53.856 334 12 329 10.7
2008-04-25 06:56:35 51°15.725 2°53.843 334 12.1 330 10.9
2008-04-25 06:56:40 51°15.739 2°53.829 334.1 12 329 10.8
2008-04-25 06:56:45 51°15.754 2°53.816 334.4 12.1 331 10.9
2008-04-25 06:56:50 51°15.768 2°53.803 335.2 12.1 331 10.9
2008-04-25 06:56:55 51°15.783 2°53.791 335.7 12.1 332 11
2008-04-25 06:57:00 51°15.798 2°53.778 336 12.1 331 11
2008-04-25 06:57:05 51°15.813 2°53.765 336.1 12.1 331 11.1
2008-04-25 06:57:10 51°15.827 2°53.752 336 12.1 330 11.1
2008-04-25 06:57:15 51°15.842 2°53.739 335.2 12.1 330 11.1
2008-04-25 06:57:20 51°15.856 2°53.724 334.5 12.2 329 11.3
2008-04-25 06:57:25 51°15.871 2°53.711 333.8 12.2 329 11.2
2008-04-25 06:57:29 51°15.882 2°53.7 333.8 12.1 330 11
2008-04-25 06:57:35 51°15.9 2°53.684 334.2 12.1 330 11.2
2008-04-25 06:57:40 51°15.915 2°53.671 334.3 12.1 331 11.1
2008-04-25 06:57:45 51°15.929 2°53.658 335.2 12.1 331 11.2
2008-04-25 06:57:50 51°15.944 2°53.645 335.5 12.2 331 11.2
2008-04-25 06:57:55 51°15.959 2°53.632 335.9 12.1 331 11.2
2008-04-25 06:58:00 51°15.974 2°53.619 335.5 12.2 331 11.2
2008-04-25 06:58:05 51°15.989 2°53.606 335.4 12.2 331 11.3
2008-04-25 06:58:10 51°16.004 2°53.593 335.2 12.2 330 11.3
2008-04-25 06:58:15 51°16.019 2°53.58 334.2 12.2 329 11.3
2008-04-25 06:58:20 51°16.033 2°53.566 333.8 12.2 329 11.3
2008-04-25 06:58:25 51°16.048 2°53.551 333.1 12.3 328 11.3
2008-04-25 06:58:30 51°16.062 2°53.537 332.7 12.3 329 11.4
2008-04-25 06:58:35 51°16.077 2°53.523 332.5 12.3 329 11.4
2008-04-25 06:58:40 51°16.092 2°53.509 334.4 12.3 331 11.5
2008-04-25 06:58:45 51°16.107 2°53.496 335.8 12.3 331 11.5
2008-04-25 06:58:50 51°16.121 2°53.483 335.6 12.3 330 11.5
2008-04-25 06:58:55 51°16.136 2°53.469 334.6 12.4 330 11.5
2008-04-25 06:59:00 51°16.151 2°53.454 334.1 12.4 329 11.5
2008-04-25 06:59:05 51°16.165 2°53.44 333.2 12.4 328 11.6
2008-04-25 06:59:10 51°16.18 2°53.426 332.7 12.4 329 11.6
2008-04-25 06:59:15 51°16.195 2°53.413 333.4 12.4 330 11.5
2008-04-25 06:59:20 51°16.21 2°53.4 334.7 12.4 332 11.7
2008-04-25 06:59:25 51°16.226 2°53.387 335.8 12.4 332 11.5
2008-04-25 06:59:30 51°16.241 2°53.374 336 12.4 332 11.6
2008-04-25 06:59:35 51°16.256 2°53.361 336.1 12.4 331 11.6
2008-04-25 06:59:40 51°16.271 2°53.348 335.6 12.4 331 11.6
2008-04-25 06:59:45 51°16.286 2°53.334 334.9 12.4 330 11.5
2008-04-25 06:59:50 51°16.301 2°53.32 333.7 12.4 329 11.6
2008-04-25 06:59:55 51°16.316 2°53.306 332.9 12.5 329 11.6
2008-04-25 07:00:00 51°16.33 2°53.291 332.4 12.5 328 11.8
2008-04-25 07:00:05 51°16.345 2°53.276 331.5 12.4 327 11.6
2008-04-25 07:00:10 51°16.359 2°53.261 330.4 12.4 326 11.6
2008-04-25 07:00:15 51°16.373 2°53.245 330.1 12.4 326 11.7
2008-04-25 07:00:20 51°16.388 2°53.23 329.6 12.4 326 11.6
2008-04-25 07:00:25 51°16.403 2°53.217 330.8 12.4 329 11.6
2008-04-25 07:00:29 51°16.414 2°53.206 333 12.4 330 11.7
2008-04-25 07:00:35 51°16.433 2°53.19 334.5 12.4 332 11.7
2008-04-25 07:00:40 51°16.448 2°53.178 336.2 12.4 333 11.7
2008-04-25 07:00:45 51°16.463 2°53.166 337.4 12.4 335 11.6
2008-04-25 07:00:50 51°16.479 2°53.154 338.9 12.4 335 11.7
2008-04-25 07:00:55 51°16.495 2°53.143 339.9 12.4 336 11.6
2008-04-25 07:01:00 51°16.511 2°53.133 340.4 12.4 337 11.8
2008-04-25 07:01:05 51°16.527 2°53.122 341.3 12.4 337 11.6
2008-04-25 07:01:10 51°16.542 2°53.112 341.7 12.4 338 11.7
2008-04-25 07:01:15 51°16.558 2°53.101 342 12.4 338 11.7
2008-04-25 07:01:20 51°16.574 2°53.091 342.2 12.4 338 11.6
2008-04-25 07:01:25 51°16.59 2°53.081 342.5 12.4 338 11.6
2008-04-25 07:01:30 51°16.606 2°53.07 342.5 12.4 338 11.5
2008-04-25 07:01:35 51°16.622 2°53.059 341.8 12.5 337 11.5
2008-04-25 07:01:40 51°16.638 2°53.048 341 12.4 336 11.5
2008-04-25 07:01:45 51°16.654 2°53.037 340.3 12.4 336 11.5
2008-04-25 07:01:50 51°16.669 2°53.026 339.8 12.4 336 11.4
2008-04-25 07:01:55 51°16.685 2°53.015 339.6 12.5 336 11.3
2008-04-25 07:02:00 51°16.701 2°53.003 339.5 12.5 335 11.3
2008-04-25 07:02:05 51°16.716 2°52.992 339 12.4 335 11
2008-04-25 07:02:10 51°16.732 2°52.98 339.2 12.4 335 11.2
2008-04-25 07:02:15 51°16.748 2°52.969 339.1 12.4 335 10.9
2008-04-25 07:02:20 51°16.763 2°52.957 339.1 12.4 336 10.6
2008-04-25 07:02:25 51°16.779 2°52.946 339.3 12.4 336 10.2
2008-04-25 07:02:30 51°16.795 2°52.935 339.6 12.4 336 9.8
2008-04-25 07:02:35 51°16.81 2°52.923 339.6 12.3 336 9.4
2008-04-25 07:02:40 51°16.826 2°52.913 339.6 12.2 336 9.3
2008-04-25 07:02:45 51°16.841 2°52.902 339.3 12.2 335 9.2
2008-04-25 07:02:50 51°16.857 2°52.89 339.1 12.2 335 9.2
2008-04-25 07:02:55 51°16.872 2°52.879 339.2 12.2 335 9
2008-04-25 07:03:00 51°16.887 2°52.868 339 12.2 335 9.1
2008-04-25 07:03:05 51°16.903 2°52.857 339.1 12.3 336 8.9
2008-04-25 07:03:10 51°16.919 2°52.846 339.6 12.2 336 9.1
2008-04-25 07:03:15 51°16.934 2°52.835 339.6 12.3 336 9.3
2008-04-25 07:03:20 51°16.95 2°52.824 339.4 12.3 336 9.1
2008-04-25 07:03:25 51°16.965 2°52.813 339 12.3 336 9.2
2008-04-25 07:03:30 51°16.981 2°52.802 339.1 12.3 336 9.3
2008-04-25 07:03:35 51°16.996 2°52.79 338.9 12.3 335 9.6
2008-04-25 07:03:40 51°17.012 2°52.778 338.2 12.3 334 9.8
2008-04-25 07:03:45 51°17.027 2°52.767 337.4 12.3 334 9.9
2008-04-25 07:03:50 51°17.043 2°52.755 338.1 12.4 336 10.1
2008-04-25 07:03:55 51°17.059 2°52.744 338.5 12.4 337 10
2008-04-25 07:04:00 51°17.074 2°52.733 338.9 12.4 336 10.1
2008-04-25 07:04:05 51°17.09 2°52.722 339 12.3 337 10
2008-04-25 07:04:10 51°17.106 2°52.714 340.9 12.3 342 9.6
2008-04-25 07:04:15 51°17.123 2°52.706 343.9 12.3 342 9.5
2008-04-25 07:04:20 51°17.139 2°52.698 345.4 12.3 345 9.5
2008-04-25 07:04:25 51°17.155 2°52.692 347.6 12.3 347 9.7
2008-04-25 07:04:30 51°17.172 2°52.686 349.8 12.2 347 9.7
2008-04-25 07:04:35 51°17.189 2°52.681 351.3 12.3 348 9.5
2008-04-25 07:04:40 51°17.205 2°52.676 352.2 12.3 350 9.6
2008-04-25 07:04:45 51°17.222 2°52.671 353.2 12.3 350 9.7
2008-04-25 07:04:49 51°17.235 2°52.668 354 12.2 351 9.7
2008-04-25 07:04:55 51°17.255 2°52.662 354.9 12.3 350 9.6
2008-04-25 07:05:00 51°17.272 2°52.658 355.2 12.3 351 9.8
2008-04-25 07:05:05 51°17.289 2°52.655 354.9 12.3 351 9.9
2008-04-25 07:05:10 51°17.307 2°52.651 354.9 12.3 351 9.7
2008-04-25 07:05:15 51°17.323 2°52.647 355 12.3 352 10
2008-04-25 07:05:20 51°17.34 2°52.642 355 12.3 351 9.8
2008-04-25 07:05:25 51°17.357 2°52.638 355.6 12.3 352 9.8
2008-04-25 07:05:30 51°17.374 2°52.634 355.5 12.3 350 9.8
2008-04-25 07:05:35 51°17.391 2°52.629 354.7 12.3 350 10
2008-04-25 07:05:40 51°17.408 2°52.625 354.8 12.2 350 10
2008-04-25 07:05:45 51°17.424 2°52.62 354.8 12.3 349 9.8
2008-04-25 07:05:50 51°17.441 2°52.614 354.3 12.2 349 10
2008-04-25 07:05:55 51°17.458 2°52.609 354.6 12.3 349 10.3
2008-04-25 07:06:00 51°17.474 2°52.603 354.2 12.2 350 10.2
2008-04-25 07:06:05 51°17.491 2°52.599 355.2 12.3 350 10.3
2008-04-25 07:06:10 51°17.507 2°52.593 354.1 12.2 349 10.2
2008-04-25 07:06:15 51°17.524 2°52.589 354.9 12.2 350 9.9
2008-04-25 07:06:20 51°17.54 2°52.583 354.9 12.2 349 10.1
2008-04-25 07:06:25 51°17.557 2°52.578 354.8 12.2 350 10.1
2008-04-25 07:06:30 51°17.573 2°52.572 354.9 12.2 349 10.3
2008-04-25 07:06:35 51°17.59 2°52.568 354.8 12.2 348 10.2
2008-04-25 07:06:40 51°17.606 2°52.562 353.5 12.2 349 10.3
2008-04-25 07:06:45 51°17.623 2°52.557 353.5 12.2 348 10.1
2008-04-25 07:06:50 51°17.639 2°52.553 355.9 12.1 352 10.3
2008-04-25 07:06:55 51°17.656 2°52.549 356.5 12.1 351 10.3
2008-04-25 07:07:00 51°17.673 2°52.546 357.7 12.2 353 10.2
2008-04-25 07:07:05 51°17.69 2°52.542 358.4 12.1 353 10.2
2008-04-25 07:07:10 51°17.706 2°52.54 359.8 12.1 355 10
2008-04-25 07:07:15 51°17.723 2°52.538 0.6 12.2 354 10.1
2008-04-25 07:07:20 51°17.74 2°52.537 1 12.2 359 9.9
2008-04-25 07:07:25 51°17.757 2°52.534 2.3 12.2 354 9.9
2008-04-25 07:07:30 51°17.774 2°52.533 2 12.1 357 10.1
2008-04-25 07:07:35 51°17.791 2°52.53 2.1 12.2 354 10.3
2008-04-25 07:07:40 51°17.808 2°52.529 1.2 12.2 357 10.2
2008-04-25 07:07:45 51°17.825 2°52.525 0.7 12.2 354 10.3
2008-04-25 07:07:50 51°17.842 2°52.523 0.6 12.2 356 10.3
2008-04-25 07:07:55 51°17.858 2°52.52 0.2 12.2 354 10.4
2008-04-25 07:08:00 51°17.875 2°52.518 0.1 12.2 354 10.4
2008-04-25 07:08:05 51°17.892 2°52.515 359.7 12.3 355 10.4
2008-04-25 07:08:10 51°17.909 2°52.513 -999 12.3 355 10.4
2008-04-25 07:08:15 51°17.926 2°52.511 0.6 12.2 356 10.4
2008-04-25 07:08:20 51°17.943 2°52.509 1.7 12.2 357 10.3
2008-04-25 07:08:25 51°17.96 2°52.508 2.3 12.2 357 10.5
2008-04-25 07:08:30 51°17.977 2°52.507 2.8 12.2 357 10.5
2008-04-25 07:08:35 51°17.994 2°52.505 3 12.2 357 10.3
2008-04-25 07:08:40 51°18.011 2°52.505 3.6 12.3 357 10.4
2008-04-25 07:08:45 51°18.028 2°52.502 2.8 12.3 356 10.6
2008-04-25 07:08:50 51°18.045 2°52.501 2.8 12.2 358 10.5
2008-04-25 07:08:55 51°18.062 2°52.499 2.5 12.3 355 10.5
2008-04-25 07:09:00 51°18.078 2°52.498 1.9 12.2 358 10.6
2008-04-25 07:09:05 51°18.095 2°52.495 1.6 12.3 354 10.5
2008-04-25 07:09:10 51°18.112 2°52.499 4.3 12.1 5 10.5
2008-04-25 07:09:15 51°18.129 2°52.499 8 12.1 2 10.6
2008-04-25 07:09:20 51°18.145 2°52.506 11.8 11.9 14 10.6
2008-04-25 07:09:25 51°18.161 2°52.511 16.7 12 12 10.6
2008-04-25 07:09:30 51°18.177 2°52.519 19 11.8 16 10.7
2008-04-25 07:09:35 51°18.192 2°52.529 24.4 11.8 22 10.7
2008-04-25 07:09:40 51°18.207 2°52.539 26.7 11.8 24 10.8
2008-04-25 07:09:45 51°18.221 2°52.554 31.7 11.7 32 10.9
2008-04-25 07:09:50 51°18.235 2°52.567 35.3 11.7 30 10.8
2008-04-25 07:09:55 51°18.247 2°52.584 39.9 11.7 40 11
2008-04-25 07:10:00 51°18.26 2°52.601 44.6 11.7 41 10.9
2008-04-25 07:10:05 51°18.271 2°52.62 47.6 11.6 46 11
2008-04-25 07:10:10 51°18.281 2°52.639 52.2 11.6 50 11.1
2008-04-25 07:10:15 51°18.29 2°52.661 55.9 11.6 56 11
2008-04-25 07:10:20 51°18.299 2°52.682 60 11.6 57 11
2008-04-25 07:10:25 51°18.306 2°52.704 62.6 11.3 63 11
2008-04-25 07:10:30 51°18.312 2°52.728 66.9 11.3 67 10.9
2008-04-25 07:10:35 51°18.319 2°52.751 68.9 11.6 64 10.9
2008-04-25 07:10:40 51°18.324 2°52.775 71.3 11.5 72 10.9
2008-04-25 07:10:45 51°18.33 2°52.799 73.3 11.4 69 11
2008-04-25 07:10:50 51°18.335 2°52.823 74.4 11.4 73 11.1
2008-04-25 07:10:55 51°18.341 2°52.846 74.5 11.5 69 11.1
2008-04-25 07:11:00 51°18.346 2°52.871 73.2 11.6 71 11
2008-04-25 07:11:05 51°18.351 2°52.895 73.5 11.6 70 10.9
2008-04-25 07:11:10 51°18.357 2°52.919 73.7 11.5 70 11
2008-04-25 07:11:15 51°18.362 2°52.943 73.8 11.5 71 11
2008-04-25 07:11:20 51°18.367 2°52.967 74.8 11.6 71 11
2008-04-25 07:11:25 51°18.372 2°52.991 74.9 11.6 71 10.9
2008-04-25 07:11:29 51°18.376 2°53.011 74.8 11.6 72 11.1
2008-04-25 07:11:35 51°18.384 2°53.039 73.2 11.4 68 11
2008-04-25 07:11:40 51°18.389 2°53.063 73.7 11.5 71 11.1
2008-04-25 07:11:45 51°18.396 2°53.087 72.8 11.8 66 11
2008-04-25 07:11:50 51°18.402 2°53.111 71.2 11.7 68 11
2008-04-25 07:11:55 51°18.408 2°53.134 69.9 11.4 66 10.9
2008-04-25 07:12:00 51°18.414 2°53.157 70.9 11.5 68 11
2008-04-25 07:12:05 51°18.42 2°53.181 71 11.6 66 11
2008-04-25 07:12:10 51°18.427 2°53.205 71.2 11.6 68 11
2008-04-25 07:12:15 51°18.433 2°53.228 69.9 11.5 66 11
2008-04-25 07:12:20 51°18.44 2°53.251 69.5 11.6 65 11
2008-04-25 07:12:25 51°18.447 2°53.274 69.4 11.6 65 11
2008-04-25 07:12:30 51°18.453 2°53.297 68.5 11.6 64 11
2008-04-25 07:12:35 51°18.46 2°53.321 68.9 11.6 64 11
2008-04-25 07:12:40 51°18.468 2°53.343 67.9 11.5 64 11
2008-04-25 07:12:45 51°18.474 2°53.367 68.7 11.5 67 11
2008-04-25 07:12:50 51°18.481 2°53.389 69.2 11.6 62 11
2008-04-25 07:12:55 51°18.488 2°53.412 67.6 11.5 65 11.1
2008-04-25 07:13:00 51°18.495 2°53.435 68.1 11.4 64 11.1
2008-04-25 07:13:05 51°18.502 2°53.458 68.2 11.5 63 11.1
2008-04-25 07:13:10 51°18.509 2°53.481 68.7 11.6 65 11.1
2008-04-25 07:13:15 51°18.516 2°53.504 67.9 11.4 63 11.1
2008-04-25 07:13:20 51°18.523 2°53.526 67.7 11.4 64 11.1
2008-04-25 07:13:25 51°18.53 2°53.549 68.1 11.6 63 11.1
2008-04-25 07:13:30 51°18.537 2°53.572 66.9 11.6 64 11
2008-04-25 07:13:35 51°18.544 2°53.595 67.6 11.6 63 11
2008-04-25 07:13:40 51°18.552 2°53.618 66 11.5 62 11.1
2008-04-25 07:13:45 51°18.559 2°53.641 67 11.6 64 11
2008-04-25 07:13:50 51°18.567 2°53.663 67 11.7 60 11.1
2008-04-25 07:13:55 51°18.574 2°53.686 66.3 11.6 64 11
2008-04-25 07:14:00 51°18.581 2°53.709 67 11.6 62 10.9
2008-04-25 07:14:05 51°18.589 2°53.732 67.3 11.7 63 11
2008-04-25 07:14:10 51°18.596 2°53.755 67.3 11.6 64 11.1
2008-04-25 07:14:15 51°18.604 2°53.777 66 11.5 61 11
2008-04-25 07:14:20 51°18.611 2°53.8 67.2 11.6 64 11
2008-04-25 07:14:25 51°18.618 2°53.823 66.6 11.7 62 11
2008-04-25 07:14:30 51°18.625 2°53.846 66.6 11.6 64 11.1
2008-04-25 07:14:35 51°18.632 2°53.869 67.2 11.5 64 11.1
2008-04-25 07:14:40 51°18.64 2°53.891 67.4 11.5 62 11
2008-04-25 07:14:45 51°18.647 2°53.914 65.9 11.6 63 11.1
2008-04-25 07:14:50 51°18.655 2°53.937 66 11.7 63 11
2008-04-25 07:14:55 51°18.662 2°53.96 66.7 11.6 64 11
2008-04-25 07:15:00 51°18.67 2°53.982 67.3 11.6 61 11
2008-04-25 07:15:05 51°18.677 2°54.005 66.8 11.7 64 11
2008-04-25 07:15:10 51°18.684 2°54.027 66.4 11.6 61 11.1
2008-04-25 07:15:15 51°18.691 2°54.051 66.5 11.6 65 11
2008-04-25 07:15:20 51°18.699 2°54.074 67.6 11.8 61 11.1
2008-04-25 07:15:25 51°18.706 2°54.096 66 11.6 63 11.1
2008-04-25 07:15:30 51°18.713 2°54.119 68.1 11.5 65 11
2008-04-25 07:15:35 51°18.72 2°54.142 67.5 11.7 63 11
2008-04-25 07:15:40 51°18.727 2°54.165 66.9 11.5 63 11.1
2008-04-25 07:15:45 51°18.734 2°54.188 67.4 11.5 64 11.1
2008-04-25 07:15:50 51°18.742 2°54.211 67.1 11.7 62 11
2008-04-25 07:15:55 51°18.75 2°54.234 66.1 11.7 62 11
2008-04-25 07:16:00 51°18.758 2°54.256 65.5 11.5 61 11
2008-04-25 07:16:05 51°18.765 2°54.279 65.6 11.7 63 11
2008-04-25 07:16:10 51°18.774 2°54.301 65 11.7 58 11.1
2008-04-25 07:16:15 51°18.78 2°54.324 64.3 11.5 64 11.1
2008-04-25 07:16:20 51°18.789 2°54.347 66 11.7 61 11.1
2008-04-25 07:16:25 51°18.796 2°54.37 65.7 11.8 62 11.1
2008-04-25 07:16:30 51°18.804 2°54.393 66.5 11.7 63 11.1
2008-04-25 07:16:35 51°18.81 2°54.416 66.4 11.5 64 11.1
2008-04-25 07:16:40 51°18.817 2°54.438 67.6 11.5 62 11.1
2008-04-25 07:16:45 51°18.824 2°54.462 67.4 11.6 65 11
2008-04-25 07:16:50 51°18.832 2°54.485 67.7 11.7 62 11
2008-04-25 07:16:55 51°18.839 2°54.508 67 11.6 65 11.1
2008-04-25 07:17:00 51°18.846 2°54.531 67.8 11.6 64 11
2008-04-25 07:17:05 51°18.853 2°54.554 68 11.7 63 11
2008-04-25 07:17:10 51°18.861 2°54.577 66.8 11.5 63 11
2008-04-25 07:17:15 51°18.867 2°54.6 68.1 11.6 65 10.9
2008-04-25 07:17:20 51°18.875 2°54.623 68.1 11.7 62 11
2008-04-25 07:17:25 51°18.881 2°54.646 67.4 11.6 65 11.1
2008-04-25 07:17:30 51°18.89 2°54.668 66.7 11.6 60 11.1
2008-04-25 07:17:35 51°18.897 2°54.691 65.7 11.7 63 11.1
2008-04-25 07:17:40 51°18.905 2°54.713 65.5 11.6 59 11
2008-04-25 07:17:45 51°18.912 2°54.736 64.7 11.6 63 11.1
2008-04-25 07:17:50 51°18.921 2°54.758 65.9 11.6 61 10.9
2008-04-25 07:17:55 51°18.928 2°54.781 65.1 11.6 63 11.1
2008-04-25 07:18:00 51°18.935 2°54.804 66.6 11.6 61 11
2008-04-25 07:18:05 51°18.943 2°54.827 66 11.6 63 11
2008-04-25 07:18:10 51°18.95 2°54.85 67.3 11.5 65 10.8
2008-04-25 07:18:15 51°18.957 2°54.872 67.5 11.6 62 10.9
2008-04-25 07:18:20 51°18.965 2°54.895 66.2 11.6 61 10.9
2008-04-25 07:18:25 51°18.973 2°54.917 65.6 11.6 62 11.1
2008-04-25 07:18:30 51°18.981 2°54.939 65.7 11.7 60 11.2
2008-04-25 07:18:35 51°18.989 2°54.962 64.6 11.6 60 10.8
2008-04-25 07:18:40 51°18.997 2°54.983 64.1 11.4 59 10.9
2008-04-25 07:18:45 51°19.005 2°55.005 64 11.5 61 10.8
2008-04-25 07:18:50 51°19.014 2°55.027 64.4 11.6 57 10.8
2008-04-25 07:18:55 51°19.021 2°55.049 63.2 11.5 63 10.8
2008-04-25 07:19:00 51°19.029 2°55.072 65.2 11.6 60 10.8
2008-04-25 07:19:05 51°19.037 2°55.094 65.2 11.5 61 10.9
2008-04-25 07:19:10 51°19.044 2°55.116 65.3 11.4 61 10.9
2008-04-25 07:19:15 51°19.052 2°55.139 65.7 11.5 62 10.9
2008-04-25 07:19:20 51°19.059 2°55.161 66.4 11.6 62 10.9
2008-04-25 07:19:25 51°19.067 2°55.184 66.7 11.5 61 10.9
2008-04-25 07:19:30 51°19.074 2°55.206 65.8 11.6 63 10.8
2008-04-25 07:19:35 51°19.082 2°55.229 66.7 11.6 62 10.8
2008-04-25 07:19:40 51°19.089 2°55.252 66.4 11.4 64 10.9
2008-04-25 07:19:45 51°19.096 2°55.275 67.8 11.5 65 10.9
2008-04-25 07:19:50 51°19.103 2°55.298 68.1 11.7 63 10.9
2008-04-25 07:19:55 51°19.111 2°55.32 67.3 11.6 64 10.9
2008-04-25 07:20:00 51°19.118 2°55.344 67.8 11.5 64 10.9
2008-04-25 07:20:05 51°19.125 2°55.366 67.1 11.5 61 10.9
2008-04-25 07:20:10 51°19.132 2°55.388 66.6 11.3 64 11.1
2008-04-25 07:20:15 51°19.14 2°55.411 66.6 11.5 62 11
2008-04-25 07:20:20 51°19.148 2°55.433 65.5 11.5 59 10.9
2008-04-25 07:20:25 51°19.156 2°55.455 63.8 11.4 59 10.9
2008-04-25 07:20:30 51°19.163 2°55.477 65.8 11.5 64 11
2008-04-25 07:20:35 51°19.171 2°55.499 65.3 11.4 61 11.1
2008-04-25 07:20:40 51°19.178 2°55.522 66.2 11.5 65 11
2008-04-25 07:20:45 51°19.186 2°55.544 66.7 11.6 59 11
2008-04-25 07:20:50 51°19.191 2°55.568 68.1 11.5 70 11
2008-04-25 07:20:55 51°19.199 2°55.591 69.9 11.5 63 11
2008-04-25 07:21:00 51°19.204 2°55.615 69.6 11.5 68 11
2008-04-25 07:21:05 51°19.211 2°55.638 70.4 11.5 66 10.9
2008-04-25 07:21:10 51°19.217 2°55.662 71.1 11.5 69 11
2008-04-25 07:21:15 51°19.224 2°55.685 71.4 11.6 66 10.8
2008-04-25 07:21:20 51°19.23 2°55.709 70.6 11.5 68 10.8
2008-04-25 07:21:25 51°19.236 2°55.731 70.4 11.3 67 10.8
2008-04-25 07:21:30 51°19.241 2°55.755 70.6 11.3 69 10.8
2008-04-25 07:21:35 51°19.248 2°55.778 71.1 11.4 67 10.9
2008-04-25 07:21:40 51°19.254 2°55.802 71.3 11.5 69 10.8
2008-04-25 07:21:45 51°19.26 2°55.826 72.3 11.5 69 10.8
2008-04-25 07:21:50 51°19.266 2°55.849 72.1 11.4 68 10.8
2008-04-25 07:21:55 51°19.271 2°55.873 72.2 11.3 69 10.8
2008-04-25 07:22:00 51°19.277 2°55.896 72.4 11.5 68 10.8
2008-04-25 07:22:05 51°19.282 2°55.92 71.9 11.4 69 10.7
2008-04-25 07:22:10 51°19.288 2°55.944 72.4 11.4 70 10.7
2008-04-25 07:22:15 51°19.293 2°55.967 73.2 11.5 69 10.6
2008-04-25 07:22:20 51°19.299 2°55.991 72.4 11.4 69 10.7
2008-04-25 07:22:25 51°19.304 2°56.015 73.2 11.4 71 10.7
2008-04-25 07:22:30 51°19.311 2°56.038 72.8 11.5 68 10.7
2008-04-25 07:22:35 51°19.316 2°56.062 71.9 11.4 70 10.7
2008-04-25 07:22:40 51°19.321 2°56.086 73.1 11.5 72 10.6
2008-04-25 07:22:45 51°19.327 2°56.11 73.4 11.6 68 10.7
2008-04-25 07:22:50 51°19.332 2°56.134 72.5 11.4 71 10.8
2008-04-25 07:22:55 51°19.337 2°56.157 74 11.3 71 10.7
2008-04-25 07:23:00 51°19.342 2°56.182 74.4 11.5 71 10.7
2008-04-25 07:23:05 51°19.348 2°56.205 72.7 11.5 69 10.6
2008-04-25 07:23:10 51°19.353 2°56.229 72.3 11.3 70 10.7
2008-04-25 07:23:15 51°19.359 2°56.252 72.7 11.4 67 10.7
2008-04-25 07:23:20 51°19.365 2°56.276 70.6 11.5 67 10.8
2008-04-25 07:23:25 51°19.372 2°56.298 69.2 11.2 65 10.7
2008-04-25 07:23:30 51°19.378 2°56.321 69.6 11.3 68 10.7
2008-04-25 07:23:35 51°19.385 2°56.344 68.9 11.6 65 10.6
2008-04-25 07:23:40 51°19.391 2°56.367 67.8 11.3 66 10.7
2008-04-25 07:23:45 51°19.397 2°56.391 69.1 11.4 68 10.6
2008-04-25 07:23:50 51°19.404 2°56.414 69.7 11.6 64 10.7
2008-04-25 07:23:55 51°19.41 2°56.437 68.9 11.4 68 10.7
2008-04-25 07:24:00 51°19.417 2°56.46 70.3 11.3 67 10.6
2008-04-25 07:24:05 51°19.422 2°56.484 70.7 11.4 68 10.6
2008-04-25 07:24:10 51°19.429 2°56.507 70.3 11.6 67 10.7
2008-04-25 07:24:15 51°19.435 2°56.53 69.4 11.4 66 10.7
2008-04-25 07:24:20 51°19.441 2°56.553 69.8 11.3 67 10.7
2008-04-25 07:24:25 51°19.448 2°56.576 69 11.5 65 10.6
2008-04-25 07:24:30 51°19.455 2°56.599 68.4 11.4 65 10.6
2008-04-25 07:24:35 51°19.461 2°56.622 68.7 11.3 68 10.7
2008-04-25 07:24:40 51°19.467 2°56.645 70 11.4 67 10.6
2008-04-25 07:24:45 51°19.473 2°56.668 69 11.4 66 10.7
2008-04-25 07:24:50 51°19.479 2°56.692 70.6 11.5 70 10.7
2008-04-25 07:24:55 51°19.486 2°56.715 69.7 11.4 66 10.7
2008-04-25 07:25:00 51°19.491 2°56.739 70.2 11.4 69 10.7
2008-04-25 07:25:05 51°19.498 2°56.762 70.3 11.5 65 10.6
2008-04-25 07:25:10 51°19.503 2°56.785 69.8 11.3 69 10.6
2008-04-25 07:25:15 51°19.51 2°56.808 70.5 11.3 66 10.6
2008-04-25 07:25:20 51°19.517 2°56.831 69.5 11.4 65 10.5
2008-04-25 07:25:25 51°19.523 2°56.853 68 11.2 66 10.6
2008-04-25 07:25:30 51°19.529 2°56.877 69.1 11.3 69 10.6
2008-04-25 07:25:35 51°19.536 2°56.899 69.6 11.4 65 10.5
2008-04-25 07:25:40 51°19.541 2°56.923 69 11.2 70 10.6
2008-04-25 07:25:45 51°19.547 2°56.946 70.1 11.4 67 10.5
2008-04-25 07:25:50 51°19.554 2°56.969 69.4 11.5 66 10.5
2008-04-25 07:25:55 51°19.559 2°56.993 69.4 11.3 70 10.5
2008-04-25 07:26:00 51°19.565 2°57.016 70.9 11.4 68 10.5
2008-04-25 07:26:05 51°19.571 2°57.04 70.7 11.5 69 10.5
2008-04-25 07:26:10 51°19.576 2°57.063 70.5 11.4 69 10.5
2008-04-25 07:26:15 51°19.581 2°57.088 71.8 11.5 71 10.4
2008-04-25 07:26:20 51°19.587 2°57.111 71.4 11.4 66 10.5
2008-04-25 07:26:25 51°19.592 2°57.135 70.9 11.3 73 10.5
2008-04-25 07:26:30 51°19.598 2°57.158 72.2 11.5 69 10.4
2008-04-25 07:26:35 51°19.604 2°57.182 70.7 11.4 69 10.4
2008-04-25 07:26:40 51°19.609 2°57.205 71.3 11.2 71 10.5
2008-04-25 07:26:45 51°19.614 2°57.229 72.4 11.3 70 10.4
2008-04-25 07:26:50 51°19.62 2°57.252 72.1 11.3 70 10.5
2008-04-25 07:26:55 51°19.625 2°57.276 71.8 11.3 70 10.5
2008-04-25 07:27:00 51°19.631 2°57.299 71.7 11.3 69 10.5
2008-04-25 07:27:05 51°19.636 2°57.323 71 11.3 69 10.4
2008-04-25 07:27:10 51°19.642 2°57.346 70.9 11.3 69 10.4
2008-04-25 07:27:15 51°19.647 2°57.369 71.4 11.3 71 10.5
2008-04-25 07:27:20 51°19.653 2°57.393 71.8 11.2 69 10.4
2008-04-25 07:27:25 51°19.658 2°57.416 71.8 11.1 70 10.5
2008-04-25 07:27:30 51°19.663 2°57.439 71.8 11.1 70 10.5
2008-04-25 07:27:35 51°19.668 2°57.463 72.1 11.4 70 10.4
2008-04-25 07:27:40 51°19.674 2°57.487 71.8 11.5 70 10.4
2008-04-25 07:27:45 51°19.68 2°57.51 71 11.2 69 10.4
2008-04-25 07:27:50 51°19.685 2°57.533 71.3 11.1 70 10.3
2008-04-25 07:27:55 51°19.69 2°57.557 71.8 11.4 69 10.2
2008-04-25 07:28:00 51°19.696 2°57.581 71.1 11.5 69 10.3
2008-04-25 07:28:05 51°19.702 2°57.604 70.5 11.3 68 10.3
2008-04-25 07:28:10 51°19.707 2°57.627 70.3 11.2 69 10.4
2008-04-25 07:28:15 51°19.713 2°57.651 71.9 11.4 70 10.3
2008-04-25 07:28:20 51°19.719 2°57.674 71.6 11.4 69 10.3
2008-04-25 07:28:25 51°19.724 2°57.698 70.9 11.2 69 10.2
2008-04-25 07:28:30 51°19.73 2°57.721 71 11.3 68 10.3
2008-04-25 07:28:35 51°19.735 2°57.744 70.1 11.2 69 10.3
2008-04-25 07:28:40 51°19.741 2°57.767 69.9 11.2 68 10.3
2008-04-25 07:28:45 51°19.747 2°57.79 69.6 11.2 67 10.2
2008-04-25 07:28:50 51°19.754 2°57.812 68.6 11.2 66 10.2
2008-04-25 07:28:55 51°19.759 2°57.836 68.7 11.3 69 10.2
2008-04-25 07:29:00 51°19.766 2°57.859 69.4 11.3 67 10.2
2008-04-25 07:29:05 51°19.771 2°57.882 69.9 11.2 71 10.2
2008-04-25 07:29:10 51°19.776 2°57.905 71.3 11.2 69 10.2
2008-04-25 07:29:15 51°19.782 2°57.928 70.7 11.2 68 10.3
2008-04-25 07:29:20 51°19.787 2°57.952 70.4 11.3 71 10.2
2008-04-25 07:29:25 51°19.793 2°57.975 71.3 11.3 69 10.2
2008-04-25 07:29:30 51°19.799 2°57.999 70.8 11.3 68 10.1
2008-04-25 07:29:35 51°19.804 2°58.022 70.3 11.2 70 10.1
2008-04-25 07:29:40 51°19.81 2°58.045 71 11.3 69 10.1
2008-04-25 07:29:45 51°19.815 2°58.069 71 11.4 70 10.2
2008-04-25 07:29:50 51°19.821 2°58.092 71.1 11.3 70 10.2
2008-04-25 07:29:55 51°19.825 2°58.116 71.6 11.1 72 10.2
2008-04-25 07:30:00 51°19.831 2°58.139 72.2 11.3 69 10.2
2008-04-25 07:30:05 51°19.836 2°58.162 70.6 11.1 69 10.1
2008-04-25 07:30:10 51°19.841 2°58.185 71.7 11.1 72 10.1
2008-04-25 07:30:15 51°19.847 2°58.208 72.1 11.3 69 10
2008-04-25 07:30:20 51°19.852 2°58.232 70.5 11.2 69 9.9
2008-04-25 07:30:25 51°19.858 2°58.254 70.3 11.1 70 10
2008-04-25 07:30:30 51°19.863 2°58.278 71.4 11.2 70 10.1
2008-04-25 07:30:35 51°19.869 2°58.301 70.4 11.2 68 10
2008-04-25 07:30:40 51°19.874 2°58.324 70.5 11.2 70 9.9
2008-04-25 07:30:45 51°19.88 2°58.347 70.3 11.2 68 10
2008-04-25 07:30:50 51°19.886 2°58.37 69.5 11.2 67 10.1
2008-04-25 07:30:55 51°19.892 2°58.393 68.6 11.2 66 9.9
2008-04-25 07:31:00 51°19.898 2°58.416 68.2 11.2 67 9.9
2008-04-25 07:31:05 51°19.905 2°58.439 68.2 11.3 66 10
2008-04-25 07:31:10 51°19.911 2°58.461 67.9 11.2 66 10
2008-04-25 07:31:15 51°19.917 2°58.484 67.4 11.1 66 10
2008-04-25 07:31:20 51°19.923 2°58.507 67.6 11.4 67 9.9
2008-04-25 07:31:25 51°19.93 2°58.53 67.7 11.4 65 9.9
2008-04-25 07:31:30 51°19.936 2°58.553 67.7 11.1 69 9.9
2008-04-25 07:31:35 51°19.942 2°58.576 69.6 11.3 68 9.8
2008-04-25 07:31:40 51°19.948 2°58.599 69.2 11.3 68 9.8
2008-04-25 07:31:45 51°19.953 2°58.622 69 11.1 69 9.8
2008-04-25 07:31:50 51°19.959 2°58.645 70.3 11.2 69 9.8
2008-04-25 07:31:55 51°19.965 2°58.668 69.6 11.3 68 9.8
2008-04-25 07:32:00 51°19.97 2°58.691 69 11.2 69 9.8
2008-04-25 07:32:05 51°19.976 2°58.714 69.6 11.2 69 9.8
2008-04-25 07:32:10 51°19.982 2°58.737 70.1 11.2 68 9.8
2008-04-25 07:32:15 51°19.987 2°58.76 69.4 11.2 69 9.7
2008-04-25 07:32:20 51°19.993 2°58.783 69.3 11.3 66 9.6
2008-04-25 07:32:25 51°19.999 2°58.806 68.1 11.1 67 9.6
2008-04-25 07:32:30 51°20.005 2°58.829 68.3 11 69 9.7
2008-04-25 07:32:35 51°20.01 2°58.852 69.6 11.2 68 9.8
2008-04-25 07:32:40 51°20.016 2°58.875 68.8 11.2 68 9.7
2008-04-25 07:32:45 51°20.022 2°58.898 69.5 11.2 69 9.7
2008-04-25 07:32:50 51°20.028 2°58.92 69.4 11.2 68 9.7
2008-04-25 07:32:55 51°20.033 2°58.943 68.9 11.1 68 9.7
2008-04-25 07:33:00 51°20.04 2°58.966 68.5 11.1 67 9.6
2008-04-25 07:33:05 51°20.045 2°58.989 68.4 11.1 67 9.6
2008-04-25 07:33:10 51°20.052 2°59.011 68 11.1 66 9.6
2008-04-25 07:33:15 51°20.057 2°59.034 67.7 11.1 68 9.6
2008-04-25 07:33:20 51°20.063 2°59.057 68.6 11.1 67 9.6
2008-04-25 07:33:25 51°20.069 2°59.08 68.2 11.3 68 9.6
2008-04-25 07:33:30 51°20.075 2°59.103 68.4 11.3 67 9.6
2008-04-25 07:33:35 51°20.08 2°59.126 68.5 11.1 70 9.6
2008-04-25 07:33:40 51°20.086 2°59.149 69.6 11.2 68 9.6
2008-04-25 07:33:45 51°20.092 2°59.172 68.8 11.2 68 9.6
2008-04-25 07:33:50 51°20.097 2°59.195 68.9 11.1 70 9.6
2008-04-25 07:33:55 51°20.103 2°59.218 69.7 11.3 68 9.6
2008-04-25 07:34:00 51°20.109 2°59.241 68.9 11.3 68 9.6
2008-04-25 07:34:05 51°20.115 2°59.264 68.6 11.1 69 9.6
2008-04-25 07:34:10 51°20.12 2°59.287 69.4 11.1 69 9.6
2008-04-25 07:34:15 51°20.126 2°59.31 69.5 11.1 68 9.6
2008-04-25 07:34:20 51°20.131 2°59.333 69.6 11.3 70 9.6
2008-04-25 07:34:25 51°20.137 2°59.356 69.7 11.3 67 9.6
2008-04-25 07:34:30 51°20.142 2°59.38 68.9 11.1 70 9.6
2008-04-25 07:34:35 51°20.148 2°59.403 69.8 11.1 69 9.5
2008-04-25 07:34:40 51°20.153 2°59.426 70.7 11.4 71 9.5
2008-04-25 07:34:45 51°20.159 2°59.449 69.4 11.3 67 9.6
2008-04-25 07:34:50 51°20.163 2°59.473 70.3 11.1 73 9.6
2008-04-25 07:34:55 51°20.169 2°59.496 71.6 11.1 71 9.6
2008-04-25 07:35:00 51°20.173 2°59.52 71.8 11.3 74 9.5
2008-04-25 07:35:05 51°20.178 2°59.544 72.9 11.2 74 9.6
2008-04-25 07:35:10 51°20.182 2°59.567 73.8 11.1 74 9.5
2008-04-25 07:35:15 51°20.186 2°59.591 74.3 11.2 74 9.6
2008-04-25 07:35:20 51°20.191 2°59.615 73.4 11.3 71 9.5
2008-04-25 07:35:25 51°20.195 2°59.638 72.4 11.1 73 9.6
2008-04-25 07:35:30 51°20.2 2°59.661 72.4 11.1 71 9.6
2008-04-25 07:35:35 51°20.205 2°59.685 71.6 11.2 71 9.5
2008-04-25 07:35:40 51°20.211 2°59.708 70.2 11.2 68 9.6
2008-04-25 07:35:45 51°20.216 2°59.731 70.1 11.1 72 9.5
2008-04-25 07:35:50 51°20.221 2°59.754 71.1 11 71 9.5
2008-04-25 07:35:55 51°20.226 2°59.778 71.9 11.1 73 9.6
2008-04-25 07:36:00 51°20.23 2°59.801 72.2 11.2 72 9.7
2008-04-25 07:36:05 51°20.234 2°59.825 72.4 11.1 74 9.7
2008-04-25 07:36:10 51°20.239 2°59.848 72.9 11.1 72 9.7
2008-04-25 07:36:15 51°20.244 2°59.872 72.6 11.2 74 9.6
2008-04-25 07:36:20 51°20.248 2°59.896 72.9 11.3 72 9.6
2008-04-25 07:36:25 51°20.253 2°59.919 72.1 11.2 72 9.6
2008-04-25 07:36:30 51°20.258 2°59.943 71.8 11.1 72 9.6
2008-04-25 07:36:35 51°20.263 2°59.966 71.8 11.2 72 9.7
2008-04-25 07:36:40 51°20.268 2°59.99 72.3 11.3 71 9.7
2008-04-25 07:36:45 51°20.272 3°0.014 71.6 11.2 72 9.5
2008-04-25 07:36:50 51°20.277 3°0.037 71.7 11.3 72 9.7
2008-04-25 07:36:55 51°20.282 3°0.061 72.4 11.3 73 9.6
2008-04-25 07:37:00 51°20.286 3°0.085 72.5 11.2 73 9.8
2008-04-25 07:37:05 51°20.291 3°0.108 72.1 11.1 73 9.6
2008-04-25 07:37:10 51°20.296 3°0.132 72.8 11.2 72 9.6
2008-04-25 07:37:15 51°20.3 3°0.156 72.8 11.4 73 9.5
2008-04-25 07:37:20 51°20.306 3°0.18 71.3 11.2 70 9.5
2008-04-25 07:37:25 51°20.31 3°0.203 71.3 11.1 73 9.6
2008-04-25 07:37:30 51°20.315 3°0.226 72 11.1 70 9.6
2008-04-25 07:37:35 51°20.321 3°0.249 71.2 11.2 71 9.6
2008-04-25 07:37:40 51°20.326 3°0.273 70.2 11.2 69 9.6
2008-04-25 07:37:45 51°20.332 3°0.296 69.1 11.2 69 9.6
2008-04-25 07:37:50 51°20.337 3°0.319 68.8 11.1 70 9.6
2008-04-25 07:37:55 51°20.342 3°0.342 69.4 11.1 71 9.5
2008-04-25 07:38:00 51°20.347 3°0.365 70.7 11.1 71 9.6
2008-04-25 07:38:05 51°20.353 3°0.388 70.9 11.1 70 9.6
2008-04-25 07:38:10 51°20.358 3°0.412 70.8 11.2 72 9.6
2008-04-25 07:38:15 51°20.363 3°0.435 70.9 11.3 71 9.6
2008-04-25 07:38:20 51°20.368 3°0.459 71 11.1 70 9.6
2008-04-25 07:38:25 51°20.373 3°0.482 71 11.2 71 9.7
2008-04-25 07:38:30 51°20.378 3°0.505 71 11.2 70 9.7
2008-04-25 07:38:35 51°20.382 3°0.529 71 11.2 74 9.6
2008-04-25 07:38:40 51°20.388 3°0.553 72.5 11.3 71 9.6
2008-04-25 07:38:45 51°20.393 3°0.576 71.8 11.2 71 9.6
2008-04-25 07:38:50 51°20.398 3°0.6 71 11.2 72 9.6
2008-04-25 07:38:55 51°20.403 3°0.623 71.1 11.2 71 9.6
2008-04-25 07:39:00 51°20.408 3°0.647 71.1 11.2 71 9.6
2008-04-25 07:39:05 51°20.412 3°0.67 71.8 11.2 72 9.6
2008-04-25 07:39:10 51°20.418 3°0.694 71.2 11.3 70 9.6
2008-04-25 07:39:15 51°20.423 3°0.717 70.6 11.2 72 9.6
2008-04-25 07:39:20 51°20.428 3°0.741 71.1 11.2 71 9.5
2008-04-25 07:39:25 51°20.433 3°0.764 71.1 11.2 71 9.5
2008-04-25 07:39:30 51°20.438 3°0.787 70.6 11.1 71 9.6
2008-04-25 07:39:35 51°20.442 3°0.811 71.9 11.2 73 9.6
2008-04-25 07:39:40 51°20.448 3°0.835 71.7 11.4 71 9.5
2008-04-25 07:39:45 51°20.453 3°0.858 71 11.2 71 9.5
2008-04-25 07:39:50 51°20.458 3°0.882 70.9 11.1 70 9.5
2008-04-25 07:39:55 51°20.463 3°0.905 70.5 11.2 71 9.7
2008-04-25 07:40:00 51°20.469 3°0.929 70.7 11.3 70 9.6
2008-04-25 07:40:05 51°20.473 3°0.952 70.3 11.2 72 9.5
2008-04-25 07:40:10 51°20.478 3°0.976 71.8 11.3 71 9.5
2008-04-25 07:40:15 51°20.484 3°0.999 71 11.4 70 9.5
2008-04-25 07:40:20 51°20.489 3°1.023 69.9 11.2 71 9.5
2008-04-25 07:40:25 51°20.494 3°1.047 71.1 11.3 71 9.5
2008-04-25 07:40:30 51°20.5 3°1.07 70.3 11.4 69 9.5
2008-04-25 07:40:35 51°20.506 3°1.094 69.2 11.4 69 9.5
2008-04-25 07:40:40 51°20.511 3°1.117 69.6 11.3 70 9.5
2008-04-25 07:40:45 51°20.516 3°1.141 70.3 11.4 71 9.4
2008-04-25 07:40:50 51°20.522 3°1.164 70.6 11.4 70 9.5
2008-04-25 07:40:55 51°20.526 3°1.188 70.4 11.3 71 9.5
2008-04-25 07:41:00 51°20.531 3°1.212 70.9 11.3 72 9.5
2008-04-25 07:41:05 51°20.536 3°1.236 71.4 11.3 70 9.6
2008-04-25 07:41:10 51°20.541 3°1.259 71.1 11.3 71 9.6
2008-04-25 07:41:15 51°20.547 3°1.283 70.7 11.4 69 9.5
2008-04-25 07:41:20 51°20.552 3°1.306 70.1 11.3 71 9.5
2008-04-25 07:41:25 51°20.557 3°1.33 70.3 11.3 70 9.5
2008-04-25 07:41:30 51°20.562 3°1.354 71.3 11.4 72 9.5
2008-04-25 07:41:35 51°20.568 3°1.377 71 11.4 68 9.5
2008-04-25 07:41:40 51°20.573 3°1.401 70.6 11.2 72 9.5
2008-04-25 07:41:45 51°20.579 3°1.424 71 11.3 69 9.4
2008-04-25 07:41:50 51°20.584 3°1.448 70.1 11.4 69 9.5
2008-04-25 07:41:55 51°20.59 3°1.472 69.1 11.4 68 9.4
2008-04-25 07:42:00 51°20.596 3°1.495 68.6 11.3 67 9.4
2008-04-25 07:42:05 51°20.602 3°1.518 68.4 11.3 69 9.5
2008-04-25 07:42:10 51°20.608 3°1.541 68.6 11.4 67 9.4
2008-04-25 07:42:15 51°20.615 3°1.564 67.8 11.4 66 9.4
2008-04-25 07:42:20 51°20.62 3°1.587 67.4 11.3 67 9.4
2008-04-25 07:42:25 51°20.627 3°1.61 67.8 11.4 67 9.4
2008-04-25 07:42:30 51°20.633 3°1.633 66.9 11.4 66 9.4
2008-04-25 07:42:35 51°20.639 3°1.656 66.7 11.2 69 9.5
2008-04-25 07:42:40 51°20.645 3°1.68 68.4 11.3 68 9.5
2008-04-25 07:42:45 51°20.651 3°1.703 67.6 11.4 67 9.4
2008-04-25 07:42:50 51°20.657 3°1.726 67.3 11.3 67 9.5
2008-04-25 07:42:55 51°20.662 3°1.749 68 11.2 70 9.5
2008-04-25 07:43:00 51°20.668 3°1.772 68.1 11.3 68 9.4
2008-04-25 07:43:05 51°20.674 3°1.795 67.5 11.3 67 9.4
2008-04-25 07:43:10 51°20.68 3°1.818 67.3 11.2 67 9.4
2008-04-25 07:43:15 51°20.686 3°1.841 67.4 11.3 67 9.5
2008-04-25 07:43:20 51°20.692 3°1.865 67.4 11.4 69 9.5
2008-04-25 07:43:25 51°20.698 3°1.888 68.1 11.3 70 9.5
2008-04-25 07:43:30 51°20.703 3°1.912 69.8 11.2 71 9.5
2008-04-25 07:43:35 51°20.708 3°1.935 70.5 11.3 71 9.5
2008-04-25 07:43:40 51°20.713 3°1.959 71.1 11.3 72 9.5
2008-04-25 07:43:45 51°20.717 3°1.983 71.1 11.2 73 9.5
2008-04-25 07:43:50 51°20.722 3°2.007 72 11.2 73 9.5
2008-04-25 07:43:55 51°20.726 3°2.031 73 11.3 73 9.5
2008-04-25 07:44:00 51°20.731 3°2.055 72.3 11.4 73 9.5
2008-04-25 07:44:05 51°20.735 3°2.079 71.9 11.3 73 9.4
2008-04-25 07:44:10 51°20.74 3°2.103 72.6 11.3 74 9.4
2008-04-25 07:44:15 51°20.745 3°2.127 72.1 11.4 70 9.4
2008-04-25 07:44:20 51°20.75 3°2.15 70.3 11.3 71 9.4
2008-04-25 07:44:25 51°20.756 3°2.174 69.9 11.2 70 9.5
2008-04-25 07:44:30 51°20.761 3°2.197 69.1 11.2 68 9.5
2008-04-25 07:44:35 51°20.767 3°2.22 68.5 11.3 68 9.4
2008-04-25 07:44:40 51°20.773 3°2.243 68 11.2 68 9.5
2008-04-25 07:44:45 51°20.779 3°2.266 67.4 11.2 68 9.5
2008-04-25 07:44:50 51°20.785 3°2.289 67.7 11.3 68 9.5
2008-04-25 07:44:55 51°20.791 3°2.313 67.4 11.3 67 9.5
2008-04-25 07:45:00 51°20.797 3°2.335 67.3 11.3 68 9.5
2008-04-25 07:45:05 51°20.803 3°2.359 68 11.3 68 9.5
2008-04-25 07:45:10 51°20.809 3°2.382 67.6 11.3 68 9.5
2008-04-25 07:45:15 51°20.815 3°2.405 68 11.3 68 9.5
2008-04-25 07:45:20 51°20.82 3°2.429 68.8 11.1 71 9.5
2008-04-25 07:45:25 51°20.825 3°2.453 71.1 11.3 72 9.5
2008-04-25 07:45:30 51°20.83 3°2.476 71.1 11.4 70 9.4
2008-04-25 07:45:35 51°20.834 3°2.5 71.5 11.2 74 9.5
2008-04-25 07:45:40 51°20.839 3°2.523 71.8 11.1 71 9.5
2008-04-25 07:45:45 51°20.843 3°2.547 72.3 11.1 75 9.6
2008-04-25 07:45:50 51°20.848 3°2.57 72.6 11.2 71 9.5
2008-04-25 07:45:55 51°20.853 3°2.594 71.6 11.1 71 9.5
2008-04-25 07:46:00 51°20.858 3°2.617 70.5 11.1 70 9.5
2008-04-25 07:46:05 51°20.864 3°2.64 69.5 11.1 69 9.5
2008-04-25 07:46:10 51°20.869 3°2.663 69.5 11.1 70 9.5
2008-04-25 07:46:15 51°20.875 3°2.686 69.3 11.2 68 9.5
2008-04-25 07:46:20 51°20.881 3°2.709 68 11.1 69 9.5
2008-04-25 07:46:25 51°20.886 3°2.732 68.8 11.1 69 9.6
2008-04-25 07:46:30 51°20.892 3°2.754 68.8 11.1 67 9.6
2008-04-25 07:46:35 51°20.898 3°2.777 67.8 11.1 69 9.6
2008-04-25 07:46:40 51°20.903 3°2.8 68.3 11.1 68 9.6
2008-04-25 07:46:45 51°20.909 3°2.823 68.7 11.1 70 9.6
2008-04-25 07:46:50 51°20.915 3°2.845 68.4 11.1 67 9.6
2008-04-25 07:46:55 51°20.92 3°2.868 68.1 10.8 70 9.6
2008-04-25 07:47:00 51°20.925 3°2.891 69.2 10.9 70 9.6
2008-04-25 07:47:05 51°20.931 3°2.913 68.4 11.1 67 9.5
2008-04-25 07:47:10 51°20.936 3°2.936 68.4 10.9 71 9.6
2008-04-25 07:47:15 51°20.941 3°2.958 69.5 10.8 69 9.6
2008-04-25 07:47:20 51°20.946 3°2.981 69.6 11 71 9.6
2008-04-25 07:47:25 51°20.952 3°3.004 70.1 11 69 9.5
2008-04-25 07:47:30 51°20.956 3°3.027 71.1 10.9 73 9.6
2008-04-25 07:47:35 51°20.961 3°3.05 71.7 10.8 71 9.7
2008-04-25 07:47:40 51°20.966 3°3.073 71.6 10.9 72 9.6
2008-04-25 07:47:45 51°20.971 3°3.096 70.3 11 69 9.6
2008-04-25 07:47:50 51°20.976 3°3.119 69.8 10.9 71 9.6
2008-04-25 07:47:55 51°20.982 3°3.141 69.9 10.9 69 9.6
2008-04-25 07:48:00 51°20.986 3°3.164 69.6 10.9 71 9.6
2008-04-25 07:48:05 51°20.991 3°3.187 69.9 10.9 71 9.6
2008-04-25 07:48:10 51°20.996 3°3.21 70.8 11 72 9.6
2008-04-25 07:48:15 51°21.001 3°3.233 71.8 11.1 71 9.6
2008-04-25 07:48:20 51°21.006 3°3.257 71.8 11.1 73 9.6
2008-04-25 07:48:25 51°21.01 3°3.28 72.4 10.9 74 9.7
2008-04-25 07:48:30 51°21.014 3°3.303 73.2 11 74 9.7
2008-04-25 07:48:35 51°21.018 3°3.327 73.7 11 74 9.7
2008-04-25 07:48:40 51°21.022 3°3.351 73.9 11.1 74 9.7
2008-04-25 07:48:45 51°21.027 3°3.375 73.7 11.2 73 9.6
2008-04-25 07:48:50 51°21.031 3°3.398 72.7 11.1 72 9.7
2008-04-25 07:48:55 51°21.036 3°3.422 72.5 11 73 9.7
2008-04-25 07:49:00 51°21.041 3°3.445 72.5 11.1 72 9.6
2008-04-25 07:49:05 51°21.045 3°3.469 72.2 11.2 72 9.7
2008-04-25 07:49:10 51°21.05 3°3.492 71.6 11.2 71 9.7
2008-04-25 07:49:15 51°21.055 3°3.516 72.2 11 74 9.7
2008-04-25 07:49:20 51°21.059 3°3.539 72.5 11.1 72 9.7
2008-04-25 07:49:25 51°21.064 3°3.563 72.5 11.2 72 9.7
2008-04-25 07:49:30 51°21.069 3°3.585 71.7 11 70 9.7
2008-04-25 07:49:35 51°21.074 3°3.608 70.8 10.9 71 9.7
2008-04-25 07:49:40 51°21.08 3°3.63 69.5 11 66 9.7
2008-04-25 07:49:45 51°21.086 3°3.653 68.1 11 69 9.7
2008-04-25 07:49:50 51°21.093 3°3.675 66.4 11 63 9.7
2008-04-25 07:49:55 51°21.099 3°3.697 66 10.9 66 9.7
2008-04-25 07:50:00 51°21.106 3°3.718 65.3 10.9 63 9.7
2008-04-25 07:50:05 51°21.112 3°3.741 65 11 66 9.7
2008-04-25 07:50:10 51°21.119 3°3.762 64.7 11.1 62 9.7
2008-04-25 07:50:15 51°21.126 3°3.784 63.8 10.9 65 9.7
2008-04-25 07:50:20 51°21.133 3°3.805 63.8 10.9 60 9.7
2008-04-25 07:50:25 51°21.141 3°3.827 62 11 62 9.8
2008-04-25 07:50:30 51°21.148 3°3.848 61.7 11.1 60 9.8
2008-04-25 07:50:35 51°21.156 3°3.869 60.3 11 59 9.7
2008-04-25 07:50:40 51°21.163 3°3.89 60.6 10.9 62 9.8
2008-04-25 07:50:45 51°21.171 3°3.911 60.9 11 58 9.8
2008-04-25 07:50:50 51°21.179 3°3.932 60.2 11 60 9.8
2008-04-25 07:50:55 51°21.186 3°3.953 60.8 11 60 9.8
2008-04-25 07:51:00 51°21.193 3°3.975 61.9 10.9 63 9.9
2008-04-25 07:51:05 51°21.199 3°3.996 63 10.9 64 9.8
2008-04-25 07:51:10 51°21.205 3°4.019 64.5 10.9 67 9.8
2008-04-25 07:51:15 51°21.211 3°4.041 65.8 11 67 9.8
2008-04-25 07:51:20 51°21.217 3°4.063 66.5 10.9 68 9.9
2008-04-25 07:51:25 51°21.222 3°4.086 67.8 10.9 69 9.9
2008-04-25 07:51:30 51°21.229 3°4.108 67 10.9 66 9.8
2008-04-25 07:51:35 51°21.234 3°4.13 66.9 10.9 68 9.8
2008-04-25 07:51:40 51°21.24 3°4.152 67.2 10.9 67 9.9
2008-04-25 07:51:45 51°21.246 3°4.174 66.7 10.9 67 9.9
2008-04-25 07:51:50 51°21.252 3°4.197 66.5 10.9 68 9.8
2008-04-25 07:51:55 51°21.258 3°4.219 67.4 11 68 9.9
2008-04-25 07:52:00 51°21.263 3°4.242 68 10.9 70 9.9
2008-04-25 07:52:05 51°21.268 3°4.265 68.5 10.9 69 9.8
2008-04-25 07:52:10 51°21.273 3°4.288 68.9 11 70 9.9
2008-04-25 07:52:15 51°21.279 3°4.31 69.3 10.9 70 9.9
2008-04-25 07:52:20 51°21.284 3°4.333 69.8 10.9 71 9.9
2008-04-25 07:52:25 51°21.289 3°4.356 69.9 11 70 9.9
2008-04-25 07:52:30 51°21.294 3°4.379 69.2 10.9 70 9.9
2008-04-25 07:52:35 51°21.3 3°4.401 68.4 11 67 9.9
2008-04-25 07:52:40 51°21.306 3°4.424 67.6 10.9 68 9.9
2008-04-25 07:52:45 51°21.312 3°4.446 67.3 10.9 66 9.9
2008-04-25 07:52:50 51°21.318 3°4.468 66.5 10.9 67 9.9
2008-04-25 07:52:55 51°21.324 3°4.49 66 10.9 66 9.9
2008-04-25 07:53:00 51°21.33 3°4.512 66.2 10.9 66 10
2008-04-25 07:53:05 51°21.336 3°4.534 65.8 10.8 66 10
2008-04-25 07:53:10 51°21.342 3°4.556 66.6 10.8 68 10
2008-04-25 07:53:15 51°21.348 3°4.578 66.2 10.8 66 10
2008-04-25 07:53:20 51°21.354 3°4.6 65.8 10.9 66 10
2008-04-25 07:53:25 51°21.36 3°4.622 66 10.9 67 10
2008-04-25 07:53:30 51°21.366 3°4.644 65.9 10.8 65 10
2008-04-25 07:53:35 51°21.372 3°4.667 66.6 10.9 69 10
2008-04-25 07:53:40 51°21.379 3°4.689 66.9 11 64 10
2008-04-25 07:53:45 51°21.384 3°4.711 66.7 11 69 10
2008-04-25 07:53:50 51°21.39 3°4.734 66.8 11.1 65 9.9
2008-04-25 07:53:55 51°21.396 3°4.756 66.5 11 69 10
2008-04-25 07:54:00 51°21.401 3°4.779 67.7 10.9 69 9.9
2008-04-25 07:54:05 51°21.407 3°4.801 68 11 68 10
2008-04-25 07:54:10 51°21.413 3°4.824 67 11.1 68 10
2008-04-25 07:54:15 51°21.418 3°4.847 67.2 10.9 68 10
2008-04-25 07:54:20 51°21.424 3°4.869 67.4 10.9 68 10
2008-04-25 07:54:25 51°21.429 3°4.892 67.6 11 69 10
2008-04-25 07:54:30 51°21.435 3°4.914 67.2 11.1 67 9.9
2008-04-25 07:54:35 51°21.441 3°4.937 67 10.9 69 10
2008-04-25 07:54:40 51°21.446 3°4.959 67.7 10.8 69 9.9
2008-04-25 07:54:45 51°21.451 3°4.983 69.1 11 71 9.9
2008-04-25 07:54:50 51°21.456 3°5.005 69.4 11 70 9.9
2008-04-25 07:54:55 51°21.461 3°5.029 70.6 11 72 10
2008-04-25 07:55:00 51°21.466 3°5.051 70.3 10.9 70 10
2008-04-25 07:55:05 51°21.471 3°5.074 70.1 10.9 71 10
2008-04-25 07:55:10 51°21.476 3°5.097 70.1 10.9 71 10
2008-04-25 07:55:15 51°21.481 3°5.12 70.5 10.9 72 10.1
2008-04-25 07:55:20 51°21.486 3°5.143 70.7 10.9 71 10
2008-04-25 07:55:25 51°21.491 3°5.166 70.6 10.9 71 10
2008-04-25 07:55:30 51°21.496 3°5.189 70.3 10.9 70 10.1
2008-04-25 07:55:35 51°21.5 3°5.212 70.6 10.9 72 10.1
2008-04-25 07:55:40 51°21.506 3°5.234 70.3 10.9 69 10
2008-04-25 07:55:45 51°21.511 3°5.257 69.3 10.8 70 10
2008-04-25 07:55:50 51°21.517 3°5.279 68.9 10.9 69 10
2008-04-25 07:55:55 51°21.522 3°5.302 68.2 10.9 68 10
2008-04-25 07:56:00 51°21.528 3°5.324 67.6 10.8 68 10
2008-04-25 07:56:05 51°21.533 3°5.346 68.3 10.8 69 10.1
2008-04-25 07:56:10 51°21.539 3°5.369 68.7 10.9 69 10
2008-04-25 07:56:15 51°21.543 3°5.391 69.1 10.9 70 10
2008-04-25 07:56:20 51°21.549 3°5.414 69.6 10.9 69 10
2008-04-25 07:56:25 51°21.554 3°5.437 69.2 10.8 71 10
2008-04-25 07:56:30 51°21.559 3°5.459 70 10.8 70 10.1
2008-04-25 07:56:35 51°21.564 3°5.482 69.8 10.9 71 10
2008-04-25 07:56:40 51°21.569 3°5.505 70.1 10.9 71 10
2008-04-25 07:56:45 51°21.574 3°5.527 70.2 10.8 70 10
2008-04-25 07:56:50 51°21.579 3°5.55 70.1 10.8 72 10
2008-04-25 07:56:55 51°21.584 3°5.573 70.4 10.9 70 10
2008-04-25 07:57:00 51°21.589 3°5.595 69.9 10.9 69 10
2008-04-25 07:57:05 51°21.594 3°5.618 69.1 10.8 69 10
2008-04-25 07:57:10 51°21.599 3°5.64 69 10.8 71 10
2008-04-25 07:57:15 51°21.605 3°5.663 69.8 10.9 69 10.1
2008-04-25 07:57:20 51°21.61 3°5.685 69.2 10.9 70 10.1
2008-04-25 07:57:25 51°21.616 3°5.708 68.6 10.9 68 10
2008-04-25 07:57:30 51°21.621 3°5.73 68.5 10.8 69 10.1
2008-04-25 07:57:35 51°21.627 3°5.752 67.9 10.8 67 10.1
2008-04-25 07:57:40 51°21.633 3°5.774 67.3 10.7 67 10.2
2008-04-25 07:57:45 51°21.639 3°5.796 66.7 10.8 66 10.2
2008-04-25 07:57:50 51°21.645 3°5.818 66 10.9 66 10.2
2008-04-25 07:57:55 51°21.651 3°5.84 66.3 10.7 67 10.3
2008-04-25 07:58:00 51°21.656 3°5.862 67.6 10.6 69 10.3
2008-04-25 07:58:05 51°21.661 3°5.884 68.3 10.7 68 10.2
2008-04-25 07:58:10 51°21.666 3°5.907 68.9 10.8 70 10.2
2008-04-25 07:58:15 51°21.671 3°5.929 69.6 10.7 70 10.2
2008-04-25 07:58:20 51°21.676 3°5.951 69.5 10.6 70 10.3
2008-04-25 07:58:25 51°21.682 3°5.973 69.1 10.7 68 10.3
2008-04-25 07:58:30 51°21.688 3°5.995 68.5 10.8 69 10.3
2008-04-25 07:58:35 51°21.693 3°6.018 68.5 10.8 69 10.3
2008-04-25 07:58:40 51°21.698 3°6.04 69.4 10.8 70 10.3
2008-04-25 07:58:45 51°21.703 3°6.062 68.9 10.7 69 10.4
2008-04-25 07:58:50 51°21.708 3°6.084 70.1 10.7 71 10.4
2008-04-25 07:58:55 51°21.714 3°6.107 69.9 10.9 68 10.5
2008-04-25 07:59:00 51°21.719 3°6.129 68.5 10.7 68 10.4
2008-04-25 07:59:05 51°21.724 3°6.151 68.4 10.7 70 10.5
2008-04-25 07:59:10 51°21.729 3°6.173 69.4 10.8 70 10.5
2008-04-25 07:59:15 51°21.735 3°6.196 69.4 10.8 70 10.5
2008-04-25 07:59:20 51°21.74 3°6.218 69.9 10.7 70 10.5
2008-04-25 07:59:25 51°21.745 3°6.24 70.3 10.7 71 10.5
2008-04-25 07:59:30 51°21.751 3°6.262 69.4 10.7 68 10.5
2008-04-25 07:59:35 51°21.756 3°6.285 68 10.9 68 10.6
2008-04-25 07:59:40 51°21.762 3°6.307 67.5 10.9 66 10.6
2008-04-25 07:59:45 51°21.769 3°6.329 66 10.8 67 10.7